Terminal Aerodrome Forecast
Issued by NWS

Home | Current Version | Previous Version | Text Only | Print | Product List | Glossary On
Versions: 1 2 3 4 5 6 7 8 9 10 11 12 13 14 15 16 17
000
FTUS43 KIND 251720
TAFBMG
TAF
KBMG 251720Z 2518/2618 28005KT P6SM VCTS SCT040CB BKN140
     FM252300 00000KT P6SM BKN250
     FM260900 VRB02KT 3SM BR SCT150
     FM261300 04004KT P6SM SCT200=

USA.gov is the U.S. government's official web portal to all federal, state and local government web resources and services.